sensor_id;sensor_type;location;lat;lon;timestamp;P1;durP1;ratioP1;P2;durP2;ratioP2
16543;SDS011;8384;47.996;7.786;2022-07-12T00:01:30;3.53;;;3.23;;
16543;SDS011;8384;47.996;7.786;2022-07-12T00:03:56;4.63;;;3.50;;
16543;SDS011;8384;47.996;7.786;2022-07-12T00:06:21;3.67;;;3.37;;
16543;SDS011;8384;47.996;7.786;2022-07-12T00:08:46;3.27;;;3.07;;
16543;SDS011;8384;47.996;7.786;2022-07-12T00:11:12;3.83;;;3.30;;
16543;SDS011;8384;47.996;7.786;2022-07-12T00:13:37;5.83;;;4.10;;
16543;SDS011;8384;47.996;7.786;2022-07-12T00:16:03;3.80;;;3.50;;
16543;SDS011;8384;47.996;7.786;2022-07-12T00:18:28;3.90;;;3.47;;
16543;SDS011;8384;47.996;7.786;2022-07-12T00:20:54;3.80;;;3.50;;
16543;SDS011;8384;47.996;7.786;2022-07-12T00:23:19;4.00;;;3.70;;
16543;SDS011;8384;47.996;7.786;2022-07-12T00:25:44;4.23;;;3.83;;
16543;SDS011;8384;47.996;7.786;2022-07-12T00:28:09;3.97;;;3.67;;
16543;SDS011;8384;47.996;7.786;2022-07-12T00:30:35;5.10;;;3.70;;
16543;SDS011;8384;47.996;7.786;2022-07-12T00:33:00;4.80;;;3.80;;
16543;SDS011;8384;47.996;7.786;2022-07-12T00:35:25;3.90;;;3.50;;
16543;SDS011;8384;47.996;7.786;2022-07-12T00:37:51;4.00;;;3.70;;
16543;SDS011;8384;47.996;7.786;2022-07-12T00:40:17;3.70;;;3.50;;
16543;SDS011;8384;47.996;7.786;2022-07-12T00:42:42;3.87;;;3.57;;
16543;SDS011;8384;47.996;7.786;2022-07-12T00:45:08;4.20;;;3.90;;
16543;SDS011;8384;47.996;7.786;2022-07-12T00:47:35;4.30;;;3.90;;
16543;SDS011;8384;47.996;7.786;2022-07-12T00:50:09;4.60;;;4.07;;
16543;SDS011;8384;47.996;7.786;2022-07-12T00:52:38;4.50;;;4.10;;
16543;SDS011;8384;47.996;7.786;2022-07-12T00:55:05;4.73;;;4.10;;
16543;SDS011;8384;47.996;7.786;2022-07-12T00:57:32;4.17;;;3.87;;
16543;SDS011;8384;47.996;7.786;2022-07-12T00:59:58;4.67;;;4.27;;
16543;SDS011;8384;47.996;7.786;2022-07-12T01:02:24;4.67;;;4.30;;
16543;SDS011;8384;47.996;7.786;2022-07-12T01:04:51;4.70;;;4.30;;
16543;SDS011;8384;47.996;7.786;2022-07-12T01:07:18;3.97;;;3.60;;
16543;SDS011;8384;47.996;7.786;2022-07-12T01:09:44;4.40;;;4.10;;
16543;SDS011;8384;47.996;7.786;2022-07-12T01:12:10;4.63;;;4.00;;
16543;SDS011;8384;47.996;7.786;2022-07-12T01:14:35;5.07;;;4.67;;
16543;SDS011;8384;47.996;7.786;2022-07-12T01:17:02;4.27;;;3.87;;
16543;SDS011;8384;47.996;7.786;2022-07-12T01:19:28;4.57;;;4.17;;
16543;SDS011;8384;47.996;7.786;2022-07-12T01:21:54;5.03;;;4.53;;
16543;SDS011;8384;47.996;7.786;2022-07-12T01:24:23;4.90;;;4.50;;
16543;SDS011;8384;47.996;7.786;2022-07-12T01:26:49;4.87;;;4.43;;
16543;SDS011;8384;47.996;7.786;2022-07-12T01:29:15;4.40;;;4.10;;
16543;SDS011;8384;47.996;7.786;2022-07-12T01:31:41;4.80;;;4.40;;
16543;SDS011;8384;47.996;7.786;2022-07-12T01:34:07;4.57;;;4.20;;
16543;SDS011;8384;47.996;7.786;2022-07-12T01:36:33;4.97;;;4.47;;
16543;SDS011;8384;47.996;7.786;2022-07-12T01:38:59;5.13;;;4.63;;
16543;SDS011;8384;47.996;7.786;2022-07-12T01:41:25;4.40;;;3.93;;
16543;SDS011;8384;47.996;7.786;2022-07-12T01:43:51;4.50;;;4.10;;
16543;SDS011;8384;47.996;7.786;2022-07-12T01:46:16;4.70;;;4.30;;
16543;SDS011;8384;47.996;7.786;2022-07-12T01:48:42;4.40;;;4.10;;
16543;SDS011;8384;47.996;7.786;2022-07-12T01:51:07;4.50;;;3.93;;
16543;SDS011;8384;47.996;7.786;2022-07-12T01:53:33;4.43;;;4.07;;
16543;SDS011;8384;47.996;7.786;2022-07-12T01:56:00;4.67;;;4.27;;
16543;SDS011;8384;47.996;7.786;2022-07-12T01:58:26;4.60;;;4.30;;
16543;SDS011;8384;47.996;7.786;2022-07-12T02:00:51;4.57;;;4.17;;
16543;SDS011;8384;47.996;7.786;2022-07-12T02:03:18;4.20;;;3.90;;
16543;SDS011;8384;47.996;7.786;2022-07-12T02:05:43;5.03;;;4.63;;
16543;SDS011;8384;47.996;7.786;2022-07-12T02:08:09;5.30;;;4.90;;
16543;SDS011;8384;47.996;7.786;2022-07-12T02:10:34;4.97;;;4.57;;
16543;SDS011;8384;47.996;7.786;2022-07-12T02:13:03;5.27;;;4.87;;
16543;SDS011;8384;47.996;7.786;2022-07-12T02:15:29;5.63;;;5.00;;
16543;SDS011;8384;47.996;7.786;2022-07-12T02:17:54;5.23;;;4.73;;
16543;SDS011;8384;47.996;7.786;2022-07-12T02:20:19;4.97;;;4.53;;
16543;SDS011;8384;47.996;7.786;2022-07-12T02:22:45;5.70;;;5.27;;
16543;SDS011;8384;47.996;7.786;2022-07-12T02:25:10;5.07;;;4.60;;
16543;SDS011;8384;47.996;7.786;2022-07-12T02:27:35;4.67;;;4.33;;
16543;SDS011;8384;47.996;7.786;2022-07-12T02:30:03;4.63;;;4.33;;
16543;SDS011;8384;47.996;7.786;2022-07-12T02:32:28;5.70;;;5.20;;
16543;SDS011;8384;47.996;7.786;2022-07-12T02:34:53;5.00;;;4.60;;
16543;SDS011;8384;47.996;7.786;2022-07-12T02:37:19;6.83;;;4.97;;
16543;SDS011;8384;47.996;7.786;2022-07-12T02:39:44;7.00;;;5.60;;
16543;SDS011;8384;47.996;7.786;2022-07-12T02:42:09;5.17;;;4.77;;
16543;SDS011;8384;47.996;7.786;2022-07-12T02:44:35;5.73;;;4.77;;
16543;SDS011;8384;47.996;7.786;2022-07-12T02:47:00;5.50;;;5.10;;
16543;SDS011;8384;47.996;7.786;2022-07-12T02:49:25;5.33;;;4.77;;
16543;SDS011;8384;47.996;7.786;2022-07-12T02:51:51;8.27;;;5.13;;
16543;SDS011;8384;47.996;7.786;2022-07-12T02:54:16;5.53;;;5.03;;
16543;SDS011;8384;47.996;7.786;2022-07-12T02:56:41;6.10;;;5.37;;
16543;SDS011;8384;47.996;7.786;2022-07-12T02:59:07;6.10;;;5.60;;
16543;SDS011;8384;47.996;7.786;2022-07-12T03:01:32;6.33;;;5.20;;
16543;SDS011;8384;47.996;7.786;2022-07-12T03:03:57;5.47;;;5.07;;
16543;SDS011;8384;47.996;7.786;2022-07-12T03:06:22;5.47;;;5.07;;
16543;SDS011;8384;47.996;7.786;2022-07-12T03:08:48;5.97;;;5.47;;
16543;SDS011;8384;47.996;7.786;2022-07-12T03:11:13;5.50;;;5.10;;
16543;SDS011;8384;47.996;7.786;2022-07-12T03:13:38;5.93;;;5.43;;
16543;SDS011;8384;47.996;7.786;2022-07-12T03:16:04;6.03;;;5.53;;
16543;SDS011;8384;47.996;7.786;2022-07-12T03:18:30;6.23;;;5.73;;
16543;SDS011;8384;47.996;7.786;2022-07-12T03:20:55;5.80;;;5.37;;
16543;SDS011;8384;47.996;7.786;2022-07-12T03:23:21;5.77;;;5.10;;
16543;SDS011;8384;47.996;7.786;2022-07-12T03:25:46;5.70;;;5.30;;
16543;SDS011;8384;47.996;7.786;2022-07-12T03:28:11;5.33;;;4.93;;
16543;SDS011;8384;47.996;7.786;2022-07-12T03:30:37;5.37;;;4.97;;
16543;SDS011;8384;47.996;7.786;2022-07-12T03:33:02;5.90;;;5.50;;
16543;SDS011;8384;47.996;7.786;2022-07-12T03:35:28;6.20;;;5.70;;
16543;SDS011;8384;47.996;7.786;2022-07-12T03:37:53;5.43;;;5.00;;
16543;SDS011;8384;47.996;7.786;2022-07-12T03:40:19;5.90;;;5.40;;
16543;SDS011;8384;47.996;7.786;2022-07-12T03:42:46;6.33;;;5.50;;
16543;SDS011;8384;47.996;7.786;2022-07-12T03:45:12;5.47;;;5.07;;
16543;SDS011;8384;47.996;7.786;2022-07-12T03:47:38;6.37;;;5.87;;
16543;SDS011;8384;47.996;7.786;2022-07-12T03:50:05;6.27;;;5.77;;
16543;SDS011;8384;47.996;7.786;2022-07-12T03:52:32;6.50;;;5.90;;
16543;SDS011;8384;47.996;7.786;2022-07-12T03:54:57;7.40;;;6.13;;
16543;SDS011;8384;47.996;7.786;2022-07-12T03:57:23;7.00;;;6.23;;
16543;SDS011;8384;47.996;7.786;2022-07-12T03:59:49;7.00;;;6.27;;
16543;SDS011;8384;47.996;7.786;2022-07-12T04:02:15;6.17;;;5.67;;
16543;SDS011;8384;47.996;7.786;2022-07-12T04:04:40;5.97;;;5.47;;
16543;SDS011;8384;47.996;7.786;2022-07-12T04:07:06;7.80;;;7.07;;
16543;SDS011;8384;47.996;7.786;2022-07-12T04:09:31;6.43;;;5.93;;
16543;SDS011;8384;47.996;7.786;2022-07-12T04:11:57;6.70;;;6.20;;
16543;SDS011;8384;47.996;7.786;2022-07-12T04:14:22;7.00;;;6.43;;
16543;SDS011;8384;47.996;7.786;2022-07-12T04:16:47;7.00;;;6.40;;
16543;SDS011;8384;47.996;7.786;2022-07-12T04:19:13;7.73;;;7.00;;
16543;SDS011;8384;47.996;7.786;2022-07-12T04:21:38;7.03;;;6.33;;
16543;SDS011;8384;47.996;7.786;2022-07-12T04:24:03;7.40;;;6.80;;
16543;SDS011;8384;47.996;7.786;2022-07-12T04:26:29;6.97;;;6.27;;
16543;SDS011;8384;47.996;7.786;2022-07-12T04:28:55;6.83;;;6.23;;
16543;SDS011;8384;47.996;7.786;2022-07-12T04:31:20;6.53;;;6.00;;
16543;SDS011;8384;47.996;7.786;2022-07-12T04:33:45;6.80;;;6.20;;
16543;SDS011;8384;47.996;7.786;2022-07-12T04:36:11;7.07;;;6.47;;
16543;SDS011;8384;47.996;7.786;2022-07-12T04:38:36;7.00;;;6.30;;
16543;SDS011;8384;47.996;7.786;2022-07-12T04:41:01;7.23;;;6.53;;
16543;SDS011;8384;47.996;7.786;2022-07-12T04:43:27;7.37;;;6.67;;
16543;SDS011;8384;47.996;7.786;2022-07-12T04:45:52;9.07;;;6.80;;
16543;SDS011;8384;47.996;7.786;2022-07-12T04:48:17;8.83;;;6.67;;
16543;SDS011;8384;47.996;7.786;2022-07-12T04:50:43;7.00;;;6.30;;
16543;SDS011;8384;47.996;7.786;2022-07-12T04:53:08;7.40;;;6.60;;
16543;SDS011;8384;47.996;7.786;2022-07-12T04:55:34;7.87;;;6.63;;
16543;SDS011;8384;47.996;7.786;2022-07-12T04:58:00;7.00;;;6.40;;
16543;SDS011;8384;47.996;7.786;2022-07-12T05:00:25;6.77;;;6.17;;
16543;SDS011;8384;47.996;7.786;2022-07-12T05:02:51;7.73;;;7.03;;
16543;SDS011;8384;47.996;7.786;2022-07-12T05:05:16;6.77;;;6.17;;
16543;SDS011;8384;47.996;7.786;2022-07-12T05:07:41;7.67;;;6.47;;
16543;SDS011;8384;47.996;7.786;2022-07-12T05:10:07;9.50;;;6.40;;
16543;SDS011;8384;47.996;7.786;2022-07-12T05:12:34;6.80;;;6.10;;
16543;SDS011;8384;47.996;7.786;2022-07-12T05:15:00;8.27;;;6.40;;
16543;SDS011;8384;47.996;7.786;2022-07-12T05:17:25;7.07;;;6.47;;
16543;SDS011;8384;47.996;7.786;2022-07-12T05:19:51;7.20;;;6.17;;
16543;SDS011;8384;47.996;7.786;2022-07-12T05:22:16;7.53;;;6.43;;
16543;SDS011;8384;47.996;7.786;2022-07-12T05:24:41;6.80;;;6.20;;
16543;SDS011;8384;47.996;7.786;2022-07-12T05:27:07;7.83;;;6.27;;
16543;SDS011;8384;47.996;7.786;2022-07-12T05:29:32;7.80;;;6.77;;
16543;SDS011;8384;47.996;7.786;2022-07-12T05:31:57;6.87;;;6.30;;
16543;SDS011;8384;47.996;7.786;2022-07-12T05:34:23;6.90;;;6.27;;
16543;SDS011;8384;47.996;7.786;2022-07-12T05:36:48;9.43;;;7.03;;
16543;SDS011;8384;47.996;7.786;2022-07-12T05:39:13;7.83;;;7.13;;
16543;SDS011;8384;47.996;7.786;2022-07-12T05:41:39;7.43;;;6.43;;
16543;SDS011;8384;47.996;7.786;2022-07-12T05:44:04;7.57;;;6.33;;
16543;SDS011;8384;47.996;7.786;2022-07-12T05:46:30;7.23;;;6.53;;
16543;SDS011;8384;47.996;7.786;2022-07-12T05:48:55;8.83;;;6.10;;
16543;SDS011;8384;47.996;7.786;2022-07-12T05:51:20;6.67;;;5.50;;
16543;SDS011;8384;47.996;7.786;2022-07-12T05:54:04;7.40;;;6.30;;
16543;SDS011;8384;47.996;7.786;2022-07-12T05:56:29;6.30;;;5.70;;
16543;SDS011;8384;47.996;7.786;2022-07-12T05:58:55;5.77;;;5.27;;
16543;SDS011;8384;47.996;7.786;2022-07-12T06:01:20;6.37;;;5.77;;
16543;SDS011;8384;47.996;7.786;2022-07-12T06:03:46;6.57;;;5.07;;
16543;SDS011;8384;47.996;7.786;2022-07-12T06:06:11;5.60;;;5.10;;
16543;SDS011;8384;47.996;7.786;2022-07-12T06:08:36;5.93;;;5.43;;
16543;SDS011;8384;47.996;7.786;2022-07-12T06:11:02;7.17;;;5.40;;
16543;SDS011;8384;47.996;7.786;2022-07-12T06:13:27;6.03;;;5.53;;
16543;SDS011;8384;47.996;7.786;2022-07-12T06:15:53;5.10;;;4.70;;
16543;SDS011;8384;47.996;7.786;2022-07-12T06:18:20;5.17;;;4.77;;
16543;SDS011;8384;47.996;7.786;2022-07-12T06:20:45;5.83;;;4.60;;
16543;SDS011;8384;47.996;7.786;2022-07-12T06:23:11;7.53;;;4.50;;
16543;SDS011;8384;47.996;7.786;2022-07-12T06:25:37;5.40;;;4.63;;
16543;SDS011;8384;47.996;7.786;2022-07-12T06:28:04;4.70;;;4.13;;
16543;SDS011;8384;47.996;7.786;2022-07-12T06:30:30;4.53;;;4.13;;
16543;SDS011;8384;47.996;7.786;2022-07-12T06:32:55;5.10;;;4.60;;
16543;SDS011;8384;47.996;7.786;2022-07-12T06:35:20;4.73;;;4.10;;
16543;SDS011;8384;47.996;7.786;2022-07-12T06:37:46;4.83;;;4.43;;
16543;SDS011;8384;47.996;7.786;2022-07-12T06:40:11;4.43;;;4.13;;
16543;SDS011;8384;47.996;7.786;2022-07-12T06:42:37;4.37;;;3.93;;
16543;SDS011;8384;47.996;7.786;2022-07-12T06:45:03;4.50;;;3.97;;
16543;SDS011;8384;47.996;7.786;2022-07-12T06:47:28;4.13;;;3.83;;
16543;SDS011;8384;47.996;7.786;2022-07-12T06:49:54;3.77;;;3.50;;
16543;SDS011;8384;47.996;7.786;2022-07-12T06:52:19;3.60;;;3.30;;
16543;SDS011;8384;47.996;7.786;2022-07-12T06:54:44;3.73;;;3.30;;
16543;SDS011;8384;47.996;7.786;2022-07-12T06:57:09;3.90;;;3.60;;
16543;SDS011;8384;47.996;7.786;2022-07-12T06:59:35;3.80;;;3.50;;
16543;SDS011;8384;47.996;7.786;2022-07-12T07:02:00;3.30;;;3.10;;
16543;SDS011;8384;47.996;7.786;2022-07-12T07:04:26;3.87;;;3.53;;
16543;SDS011;8384;47.996;7.786;2022-07-12T07:06:51;3.70;;;3.40;;
16543;SDS011;8384;47.996;7.786;2022-07-12T07:09:17;4.13;;;3.73;;
16543;SDS011;8384;47.996;7.786;2022-07-12T07:11:43;4.00;;;3.70;;
16543;SDS011;8384;47.996;7.786;2022-07-12T07:14:08;4.57;;;3.70;;
16543;SDS011;8384;47.996;7.786;2022-07-12T07:16:34;3.87;;;3.57;;
16543;SDS011;8384;47.996;7.786;2022-07-12T07:18:59;4.13;;;3.60;;
16543;SDS011;8384;47.996;7.786;2022-07-12T07:21:25;3.63;;;3.30;;
16543;SDS011;8384;47.996;7.786;2022-07-12T07:23:51;3.97;;;3.60;;
16543;SDS011;8384;47.996;7.786;2022-07-12T07:26:17;3.67;;;3.37;;
16543;SDS011;8384;47.996;7.786;2022-07-12T07:28:42;5.23;;;3.70;;
16543;SDS011;8384;47.996;7.786;2022-07-12T07:31:34;3.60;;;3.30;;
16543;SDS011;8384;47.996;7.786;2022-07-12T07:34:02;3.63;;;3.33;;
16543;SDS011;8384;47.996;7.786;2022-07-12T07:36:28;3.63;;;3.40;;
16543;SDS011;8384;47.996;7.786;2022-07-12T07:38:53;3.70;;;3.20;;
16543;SDS011;8384;47.996;7.786;2022-07-12T07:41:19;3.70;;;3.37;;
16543;SDS011;8384;47.996;7.786;2022-07-12T07:43:44;3.30;;;3.10;;
16543;SDS011;8384;47.996;7.786;2022-07-12T07:46:10;2.93;;;2.67;;
16543;SDS011;8384;47.996;7.786;2022-07-12T07:48:35;3.23;;;3.03;;
16543;SDS011;8384;47.996;7.786;2022-07-12T07:51:00;3.20;;;2.90;;
16543;SDS011;8384;47.996;7.786;2022-07-12T07:53:26;3.30;;;3.10;;
16543;SDS011;8384;47.996;7.786;2022-07-12T07:55:51;3.37;;;2.83;;
16543;SDS011;8384;47.996;7.786;2022-07-12T07:58:16;4.60;;;3.40;;
16543;SDS011;8384;47.996;7.786;2022-07-12T08:00:42;3.27;;;2.97;;
16543;SDS011;8384;47.996;7.786;2022-07-12T08:03:07;3.33;;;2.97;;
16543;SDS011;8384;47.996;7.786;2022-07-12T08:05:32;3.23;;;2.93;;
16543;SDS011;8384;47.996;7.786;2022-07-12T08:07:58;6.07;;;2.67;;
16543;SDS011;8384;47.996;7.786;2022-07-12T08:10:23;2.90;;;2.70;;
16543;SDS011;8384;47.996;7.786;2022-07-12T08:12:49;3.07;;;2.67;;
16543;SDS011;8384;47.996;7.786;2022-07-12T08:15:14;3.43;;;2.67;;
16543;SDS011;8384;47.996;7.786;2022-07-12T08:17:39;3.20;;;2.67;;
16543;SDS011;8384;47.996;7.786;2022-07-12T08:20:05;3.10;;;2.80;;
16543;SDS011;8384;47.996;7.786;2022-07-12T08:22:30;4.73;;;2.97;;
16543;SDS011;8384;47.996;7.786;2022-07-12T08:24:56;2.83;;;2.63;;
16543;SDS011;8384;47.996;7.786;2022-07-12T08:27:23;4.33;;;2.60;;
16543;SDS011;8384;47.996;7.786;2022-07-12T08:29:49;2.27;;;2.13;;
16543;SDS011;8384;47.996;7.786;2022-07-12T08:32:14;2.43;;;2.23;;
16543;SDS011;8384;47.996;7.786;2022-07-12T08:34:40;2.67;;;2.47;;
16543;SDS011;8384;47.996;7.786;2022-07-12T08:37:05;2.73;;;2.53;;
16543;SDS011;8384;47.996;7.786;2022-07-12T08:39:31;1.87;;;1.77;;
16543;SDS011;8384;47.996;7.786;2022-07-12T08:41:56;2.17;;;2.03;;
16543;SDS011;8384;47.996;7.786;2022-07-12T08:44:22;2.33;;;2.00;;
16543;SDS011;8384;47.996;7.786;2022-07-12T08:46:47;4.13;;;2.40;;
16543;SDS011;8384;47.996;7.786;2022-07-12T08:49:12;2.70;;;2.30;;
16543;SDS011;8384;47.996;7.786;2022-07-12T08:51:38;2.17;;;2.03;;
16543;SDS011;8384;47.996;7.786;2022-07-12T08:54:07;3.53;;;2.30;;
16543;SDS011;8384;47.996;7.786;2022-07-12T08:56:38;4.37;;;2.47;;
16543;SDS011;8384;47.996;7.786;2022-07-12T08:59:09;2.80;;;1.90;;
16543;SDS011;8384;47.996;7.786;2022-07-12T09:01:42;2.07;;;1.97;;
16543;SDS011;8384;47.996;7.786;2022-07-12T09:04:16;2.50;;;2.10;;
16543;SDS011;8384;47.996;7.786;2022-07-12T09:06:42;3.50;;;2.30;;
16543;SDS011;8384;47.996;7.786;2022-07-12T09:09:08;2.53;;;2.20;;
16543;SDS011;8384;47.996;7.786;2022-07-12T09:11:37;3.53;;;2.20;;
16543;SDS011;8384;47.996;7.786;2022-07-12T09:14:04;2.30;;;2.10;;
16543;SDS011;8384;47.996;7.786;2022-07-12T09:16:29;3.43;;;2.37;;
16543;SDS011;8384;47.996;7.786;2022-07-12T09:19:11;2.20;;;2.10;;
16543;SDS011;8384;47.996;7.786;2022-07-12T09:21:51;2.53;;;2.17;;
16543;SDS011;8384;47.996;7.786;2022-07-12T09:24:19;2.03;;;1.93;;
16543;SDS011;8384;47.996;7.786;2022-07-12T09:26:45;4.37;;;2.40;;
16543;SDS011;8384;47.996;7.786;2022-07-12T09:29:11;2.40;;;2.20;;
16543;SDS011;8384;47.996;7.786;2022-07-12T09:31:41;2.60;;;2.20;;
16543;SDS011;8384;47.996;7.786;2022-07-12T09:34:31;2.17;;;2.07;;
16543;SDS011;8384;47.996;7.786;2022-07-12T09:37:15;2.17;;;1.97;;
16543;SDS011;8384;47.996;7.786;2022-07-12T09:39:40;2.43;;;2.30;;
16543;SDS011;8384;47.996;7.786;2022-07-12T09:42:10;2.30;;;1.90;;
16543;SDS011;8384;47.996;7.786;2022-07-12T09:44:37;2.30;;;2.10;;
16543;SDS011;8384;47.996;7.786;2022-07-12T09:47:07;2.60;;;2.40;;
16543;SDS011;8384;47.996;7.786;2022-07-12T09:49:38;2.23;;;1.87;;
16543;SDS011;8384;47.996;7.786;2022-07-12T09:52:04;2.43;;;2.23;;
16543;SDS011;8384;47.996;7.786;2022-07-12T09:54:31;2.20;;;2.10;;
16543;SDS011;8384;47.996;7.786;2022-07-12T09:57:01;2.70;;;2.30;;
16543;SDS011;8384;47.996;7.786;2022-07-12T09:59:28;3.00;;;2.70;;
16543;SDS011;8384;47.996;7.786;2022-07-12T10:01:54;2.77;;;2.50;;
16543;SDS011;8384;47.996;7.786;2022-07-12T10:04:24;3.00;;;2.80;;
16543;SDS011;8384;47.996;7.786;2022-07-12T10:06:54;2.50;;;2.30;;
16543;SDS011;8384;47.996;7.786;2022-07-12T10:09:20;2.73;;;2.53;;
16543;SDS011;8384;47.996;7.786;2022-07-12T10:11:46;3.50;;;2.70;;
16543;SDS011;8384;47.996;7.786;2022-07-12T10:14:12;2.70;;;2.50;;
16543;SDS011;8384;47.996;7.786;2022-07-12T10:16:41;3.00;;;2.40;;
16543;SDS011;8384;47.996;7.786;2022-07-12T10:21:52;2.80;;;2.57;;
16543;SDS011;8384;47.996;7.786;2022-07-12T10:26:57;3.83;;;2.73;;
16543;SDS011;8384;47.996;7.786;2022-07-12T10:29:42;2.80;;;2.60;;
16543;SDS011;8384;47.996;7.786;2022-07-12T10:32:21;2.80;;;2.60;;
16543;SDS011;8384;47.996;7.786;2022-07-12T10:37:27;3.03;;;2.50;;
16543;SDS011;8384;47.996;7.786;2022-07-12T10:42:38;2.97;;;2.77;;
16543;SDS011;8384;47.996;7.786;2022-07-12T10:45:13;4.63;;;2.40;;
16543;SDS011;8384;47.996;7.786;2022-07-12T10:47:59;2.40;;;2.30;;
16543;SDS011;8384;47.996;7.786;2022-07-12T10:50:49;7.13;;;2.47;;
16543;SDS011;8384;47.996;7.786;2022-07-12T10:53:32;2.70;;;2.50;;
16543;SDS011;8384;47.996;7.786;2022-07-12T10:56:18;2.60;;;2.40;;
16543;SDS011;8384;47.996;7.786;2022-07-12T10:58:49;2.90;;;2.70;;
16543;SDS011;8384;47.996;7.786;2022-07-12T11:01:25;3.23;;;2.37;;
16543;SDS011;8384;47.996;7.786;2022-07-12T11:03:53;2.50;;;2.30;;
16543;SDS011;8384;47.996;7.786;2022-07-12T11:06:24;2.40;;;2.20;;
16543;SDS011;8384;47.996;7.786;2022-07-12T11:09:04;2.90;;;2.60;;
16543;SDS011;8384;47.996;7.786;2022-07-12T11:11:34;2.73;;;2.43;;
16543;SDS011;8384;47.996;7.786;2022-07-12T11:14:00;4.00;;;2.27;;
16543;SDS011;8384;47.996;7.786;2022-07-12T11:16:26;3.53;;;2.10;;
16543;SDS011;8384;47.996;7.786;2022-07-12T11:18:53;2.70;;;2.50;;
16543;SDS011;8384;47.996;7.786;2022-07-12T11:21:19;2.50;;;2.30;;
16543;SDS011;8384;47.996;7.786;2022-07-12T11:23:46;2.73;;;2.53;;
16543;SDS011;8384;47.996;7.786;2022-07-12T11:26:11;2.57;;;2.30;;
16543;SDS011;8384;47.996;7.786;2022-07-12T11:28:38;2.70;;;2.50;;
16543;SDS011;8384;47.996;7.786;2022-07-12T11:31:14;2.53;;;2.33;;
16543;SDS011;8384;47.996;7.786;2022-07-12T11:33:42;3.40;;;2.40;;
16543;SDS011;8384;47.996;7.786;2022-07-12T11:36:09;4.00;;;2.30;;
16543;SDS011;8384;47.996;7.786;2022-07-12T11:38:37;2.50;;;2.30;;
16543;SDS011;8384;47.996;7.786;2022-07-12T11:41:04;2.47;;;2.30;;
16543;SDS011;8384;47.996;7.786;2022-07-12T11:43:30;2.33;;;2.23;;
16543;SDS011;8384;47.996;7.786;2022-07-12T11:45:56;4.57;;;2.20;;
16543;SDS011;8384;47.996;7.786;2022-07-12T11:48:22;2.33;;;2.10;;
16543;SDS011;8384;47.996;7.786;2022-07-12T11:50:52;2.57;;;2.00;;
16543;SDS011;8384;47.996;7.786;2022-07-12T11:55:44;2.20;;;2.00;;
16543;SDS011;8384;47.996;7.786;2022-07-12T11:58:11;2.83;;;2.20;;
16543;SDS011;8384;47.996;7.786;2022-07-12T12:00:37;2.53;;;2.20;;
16543;SDS011;8384;47.996;7.786;2022-07-12T12:03:03;2.57;;;2.33;;
16543;SDS011;8384;47.996;7.786;2022-07-12T12:05:29;2.73;;;2.00;;
16543;SDS011;8384;47.996;7.786;2022-07-12T12:07:55;2.37;;;2.17;;
16543;SDS011;8384;47.996;7.786;2022-07-12T12:10:21;2.57;;;2.30;;
16543;SDS011;8384;47.996;7.786;2022-07-12T12:15:17;2.40;;;2.20;;
16543;SDS011;8384;47.996;7.786;2022-07-12T12:18:05;2.60;;;2.40;;
16543;SDS011;8384;47.996;7.786;2022-07-12T12:23:06;2.13;;;2.03;;
16543;SDS011;8384;47.996;7.786;2022-07-12T12:25:39;2.33;;;2.00;;
16543;SDS011;8384;47.996;7.786;2022-07-12T12:28:04;2.73;;;2.10;;
16543;SDS011;8384;47.996;7.786;2022-07-12T12:30:30;2.47;;;2.00;;
16543;SDS011;8384;47.996;7.786;2022-07-12T12:32:57;2.50;;;2.30;;
16543;SDS011;8384;47.996;7.786;2022-07-12T12:35:37;2.17;;;2.07;;
16543;SDS011;8384;47.996;7.786;2022-07-12T12:38:09;2.30;;;2.10;;
16543;SDS011;8384;47.996;7.786;2022-07-12T12:40:36;3.03;;;1.97;;
16543;SDS011;8384;47.996;7.786;2022-07-12T12:43:12;4.53;;;2.17;;
16543;SDS011;8384;47.996;7.786;2022-07-12T12:45:48;2.37;;;2.10;;
16543;SDS011;8384;47.996;7.786;2022-07-12T12:48:17;2.10;;;2.00;;
16543;SDS011;8384;47.996;7.786;2022-07-12T12:50:45;4.40;;;2.00;;
16543;SDS011;8384;47.996;7.786;2022-07-12T12:53:12;2.00;;;1.90;;
16543;SDS011;8384;47.996;7.786;2022-07-12T12:55:40;3.17;;;2.20;;
16543;SDS011;8384;47.996;7.786;2022-07-12T12:58:07;3.10;;;2.03;;
16543;SDS011;8384;47.996;7.786;2022-07-12T13:00:32;2.73;;;2.30;;
16543;SDS011;8384;47.996;7.786;2022-07-12T13:03:00;2.40;;;2.20;;
16543;SDS011;8384;47.996;7.786;2022-07-12T13:05:29;3.03;;;2.37;;
16543;SDS011;8384;47.996;7.786;2022-07-12T13:07:54;3.77;;;2.20;;
16543;SDS011;8384;47.996;7.786;2022-07-12T13:10:20;2.70;;;1.77;;
16543;SDS011;8384;47.996;7.786;2022-07-12T13:12:45;2.20;;;2.00;;
16543;SDS011;8384;47.996;7.786;2022-07-12T13:15:11;4.33;;;2.10;;
16543;SDS011;8384;47.996;7.786;2022-07-12T13:17:36;3.20;;;2.00;;
16543;SDS011;8384;47.996;7.786;2022-07-12T13:20:02;3.93;;;2.10;;
16543;SDS011;8384;47.996;7.786;2022-07-12T13:22:29;2.90;;;1.97;;
16543;SDS011;8384;47.996;7.786;2022-07-12T13:24:54;2.50;;;2.30;;
16543;SDS011;8384;47.996;7.786;2022-07-12T13:27:20;2.43;;;1.93;;
16543;SDS011;8384;47.996;7.786;2022-07-12T13:29:45;3.43;;;2.20;;
16543;SDS011;8384;47.996;7.786;2022-07-12T13:32:11;2.77;;;2.00;;
16543;SDS011;8384;47.996;7.786;2022-07-12T13:34:36;2.90;;;2.00;;
16543;SDS011;8384;47.996;7.786;2022-07-12T13:37:01;2.20;;;1.80;;
16543;SDS011;8384;47.996;7.786;2022-07-12T13:39:27;2.23;;;2.13;;
16543;SDS011;8384;47.996;7.786;2022-07-12T13:42:10;4.00;;;1.80;;
16543;SDS011;8384;47.996;7.786;2022-07-12T13:44:36;2.00;;;1.90;;
16543;SDS011;8384;47.996;7.786;2022-07-12T13:47:01;2.00;;;1.90;;
16543;SDS011;8384;47.996;7.786;2022-07-12T13:49:27;2.27;;;1.80;;
16543;SDS011;8384;47.996;7.786;2022-07-12T13:51:53;3.10;;;2.00;;
16543;SDS011;8384;47.996;7.786;2022-07-12T13:54:18;1.97;;;1.87;;
16543;SDS011;8384;47.996;7.786;2022-07-12T13:56:44;2.10;;;1.90;;
16543;SDS011;8384;47.996;7.786;2022-07-12T13:59:12;2.07;;;1.80;;
16543;SDS011;8384;47.996;7.786;2022-07-12T14:01:37;2.90;;;1.97;;
16543;SDS011;8384;47.996;7.786;2022-07-12T14:04:02;2.17;;;2.03;;
16543;SDS011;8384;47.996;7.786;2022-07-12T14:06:28;2.40;;;1.70;;
16543;SDS011;8384;47.996;7.786;2022-07-12T14:08:53;2.77;;;1.70;;
16543;SDS011;8384;47.996;7.786;2022-07-12T14:11:19;1.80;;;1.70;;
16543;SDS011;8384;47.996;7.786;2022-07-12T14:13:45;3.47;;;1.83;;
16543;SDS011;8384;47.996;7.786;2022-07-12T14:16:11;3.20;;;1.90;;
16543;SDS011;8384;47.996;7.786;2022-07-12T14:18:37;3.70;;;1.63;;
16543;SDS011;8384;47.996;7.786;2022-07-12T14:21:03;1.67;;;1.57;;
16543;SDS011;8384;47.996;7.786;2022-07-12T14:23:28;3.73;;;1.80;;
16543;SDS011;8384;47.996;7.786;2022-07-12T14:25:54;2.17;;;1.50;;
16543;SDS011;8384;47.996;7.786;2022-07-12T14:28:19;2.17;;;1.70;;
16543;SDS011;8384;47.996;7.786;2022-07-12T14:30:45;2.90;;;1.77;;
16543;SDS011;8384;47.996;7.786;2022-07-12T14:33:10;2.37;;;1.70;;
16543;SDS011;8384;47.996;7.786;2022-07-12T14:35:35;1.77;;;1.60;;
16543;SDS011;8384;47.996;7.786;2022-07-12T14:38:01;1.80;;;1.70;;
16543;SDS011;8384;47.996;7.786;2022-07-12T14:40:26;3.23;;;1.60;;
16543;SDS011;8384;47.996;7.786;2022-07-12T14:42:51;1.70;;;1.60;;
16543;SDS011;8384;47.996;7.786;2022-07-12T14:45:17;1.70;;;1.60;;
16543;SDS011;8384;47.996;7.786;2022-07-12T14:47:42;1.57;;;1.40;;
16543;SDS011;8384;47.996;7.786;2022-07-12T14:50:08;3.90;;;1.70;;
16543;SDS011;8384;47.996;7.786;2022-07-12T14:52:33;2.70;;;1.63;;
16543;SDS011;8384;47.996;7.786;2022-07-12T14:54:59;2.90;;;1.60;;
16543;SDS011;8384;47.996;7.786;2022-07-12T14:57:24;1.97;;;1.60;;
16543;SDS011;8384;47.996;7.786;2022-07-12T14:59:49;5.33;;;1.60;;
16543;SDS011;8384;47.996;7.786;2022-07-12T15:02:15;2.10;;;1.50;;
16543;SDS011;8384;47.996;7.786;2022-07-12T15:04:42;1.80;;;1.70;;
16543;SDS011;8384;47.996;7.786;2022-07-12T15:07:07;2.90;;;1.90;;
16543;SDS011;8384;47.996;7.786;2022-07-12T15:09:32;2.83;;;1.50;;
16543;SDS011;8384;47.996;7.786;2022-07-12T15:11:58;1.50;;;1.40;;
16543;SDS011;8384;47.996;7.786;2022-07-12T15:14:24;2.07;;;1.60;;
16543;SDS011;8384;47.996;7.786;2022-07-12T15:16:49;1.70;;;1.60;;